sensor_id;sensor_type;location;lat;lon;timestamp;pressure;altitude;pressure_sealevel;temperature;humidity
72409;BME280;60402;48.082;11.628;2023-06-14T00:01:38;94862.53;;;12.62;64.40
72409;BME280;60402;48.082;11.628;2023-06-14T00:04:23;94836.53;;;12.45;64.34
72409;BME280;60402;48.082;11.628;2023-06-14T00:07:11;94851.19;;;12.35;65.67
72409;BME280;60402;48.082;11.628;2023-06-14T00:09:59;94847.09;;;12.36;65.42
72409;BME280;60402;48.082;11.628;2023-06-14T00:12:44;94846.78;;;12.34;65.31
72409;BME280;60402;48.082;11.628;2023-06-14T00:15:31;94836.88;;;12.29;65.11
72409;BME280;60402;48.082;11.628;2023-06-14T00:18:16;94842.84;;;12.22;66.04
72409;BME280;60402;48.082;11.628;2023-06-14T00:21:03;94834.66;;;12.15;66.13
72409;BME280;60402;48.082;11.628;2023-06-14T00:23:49;94814.81;;;12.06;66.27
72409;BME280;60402;48.082;11.628;2023-06-14T00:26:35;94856.84;;;12.25;66.37
72409;BME280;60402;48.082;11.628;2023-06-14T00:29:21;94848.97;;;12.11;66.55
72409;BME280;60402;48.082;11.628;2023-06-14T00:32:06;94808.03;;;11.94;67.13
72409;BME280;60402;48.082;11.628;2023-06-14T00:34:53;94844.84;;;12.03;67.63
72409;BME280;60402;48.082;11.628;2023-06-14T00:37:38;94863.91;;;12.12;67.30
72409;BME280;60402;48.082;11.628;2023-06-14T00:40:24;94855.38;;;11.93;67.37
72409;BME280;60402;48.082;11.628;2023-06-14T00:43:10;94838.06;;;11.82;67.31
72409;BME280;60402;48.082;11.628;2023-06-14T00:45:56;94861.19;;;11.90;67.53
72409;BME280;60402;48.082;11.628;2023-06-14T00:48:41;94857.75;;;11.95;67.24
72409;BME280;60402;48.082;11.628;2023-06-14T00:51:27;94861.66;;;11.88;67.07
72409;BME280;60402;48.082;11.628;2023-06-14T00:54:13;94821.28;;;11.57;68.31
72409;BME280;60402;48.082;11.628;2023-06-14T00:56:59;94827.91;;;11.54;68.13
72409;BME280;60402;48.082;11.628;2023-06-14T00:59:47;94865.19;;;11.70;68.05
72409;BME280;60402;48.082;11.628;2023-06-14T01:02:33;94835.41;;;11.47;68.64
72409;BME280;60402;48.082;11.628;2023-06-14T01:05:19;94845.69;;;11.63;68.55
72409;BME280;60402;48.082;11.628;2023-06-14T01:11:28;94850.84;;;11.56;68.51
72409;BME280;60402;48.082;11.628;2023-06-14T01:14:17;94843.06;;;11.38;69.14
72409;BME280;60402;48.082;11.628;2023-06-14T01:17:04;94833.94;;;11.24;69.32
72409;BME280;60402;48.082;11.628;2023-06-14T01:19:51;94861.03;;;11.44;69.15
72409;BME280;60402;48.082;11.628;2023-06-14T01:22:52;94855.03;;;11.42;69.42
72409;BME280;60402;48.082;11.628;2023-06-14T01:25:38;94861.75;;;11.26;69.65
72409;BME280;60402;48.082;11.628;2023-06-14T01:28:24;94810.19;;;10.91;70.38
72409;BME280;60402;48.082;11.628;2023-06-14T01:31:12;94839.28;;;11.00;70.76
72409;BME280;60402;48.082;11.628;2023-06-14T01:33:58;94828.41;;;10.90;71.16
72409;BME280;60402;48.082;11.628;2023-06-14T01:36:44;94834.41;;;10.92;71.52
72409;BME280;60402;48.082;11.628;2023-06-14T01:39:31;94821.34;;;10.94;71.06
72409;BME280;60402;48.082;11.628;2023-06-14T01:42:17;94841.19;;;11.04;71.35
72409;BME280;60402;48.082;11.628;2023-06-14T01:45:07;94817.81;;;10.81;71.37
72409;BME280;60402;48.082;11.628;2023-06-14T01:47:54;94831.63;;;10.79;72.31
72409;BME280;60402;48.082;11.628;2023-06-14T01:50:40;94824.03;;;10.67;73.18
72409;BME280;60402;48.082;11.628;2023-06-14T01:53:26;94830.78;;;10.69;73.43
72409;BME280;60402;48.082;11.628;2023-06-14T01:56:12;94821.78;;;10.62;73.30
72409;BME280;60402;48.082;11.628;2023-06-14T01:58:57;94813.19;;;10.65;72.21
72409;BME280;60402;48.082;11.628;2023-06-14T02:01:43;94832.75;;;10.82;72.02
72409;BME280;60402;48.082;11.628;2023-06-14T02:04:30;94809.84;;;10.58;72.09
72409;BME280;60402;48.082;11.628;2023-06-14T02:07:15;94829.81;;;10.63;72.05
72409;BME280;60402;48.082;11.628;2023-06-14T02:10:01;94827.72;;;10.55;72.50
72409;BME280;60402;48.082;11.628;2023-06-14T02:12:47;94846.25;;;10.56;72.15
72409;BME280;60402;48.082;11.628;2023-06-14T02:15:33;94827.97;;;10.47;72.71
72409;BME280;60402;48.082;11.628;2023-06-14T02:18:20;94830.84;;;10.35;73.55
72409;BME280;60402;48.082;11.628;2023-06-14T02:21:05;94820.97;;;10.17;74.12
72409;BME280;60402;48.082;11.628;2023-06-14T02:23:51;94841.81;;;10.33;73.44
72409;BME280;60402;48.082;11.628;2023-06-14T02:26:37;94825.06;;;10.16;73.61
72409;BME280;60402;48.082;11.628;2023-06-14T02:29:29;94833.06;;;10.18;73.93
72409;BME280;60402;48.082;11.628;2023-06-14T02:32:14;94838.16;;;10.10;74.79
72409;BME280;60402;48.082;11.628;2023-06-14T02:35:00;94826.41;;;9.77;75.91
72409;BME280;60402;48.082;11.628;2023-06-14T02:37:46;94821.81;;;9.58;77.10
72409;BME280;60402;48.082;11.628;2023-06-14T02:40:31;94807.19;;;9.25;78.65
72409;BME280;60402;48.082;11.628;2023-06-14T02:43:17;94837.84;;;9.35;79.20
72409;BME280;60402;48.082;11.628;2023-06-14T02:46:03;94827.63;;;9.29;79.10
72409;BME280;60402;48.082;11.628;2023-06-14T02:48:49;94834.03;;;9.16;79.41
72409;BME280;60402;48.082;11.628;2023-06-14T02:51:34;94831.91;;;9.20;79.47
72409;BME280;60402;48.082;11.628;2023-06-14T02:54:20;94823.53;;;9.17;79.88
72409;BME280;60402;48.082;11.628;2023-06-14T02:57:06;94841.47;;;9.36;79.85
72409;BME280;60402;48.082;11.628;2023-06-14T02:59:53;94821.19;;;9.15;79.57
72409;BME280;60402;48.082;11.628;2023-06-14T03:02:38;94848.34;;;9.35;79.42
72409;BME280;60402;48.082;11.628;2023-06-14T03:05:24;94825.47;;;9.20;79.24
72409;BME280;60402;48.082;11.628;2023-06-14T03:08:10;94835.19;;;9.32;79.06
72409;BME280;60402;48.082;11.628;2023-06-14T03:10:56;94827.03;;;9.21;79.29
72409;BME280;60402;48.082;11.628;2023-06-14T03:13:41;94822.66;;;9.33;78.01
72409;BME280;60402;48.082;11.628;2023-06-14T03:16:27;94845.53;;;9.47;77.55
72409;BME280;60402;48.082;11.628;2023-06-14T03:19:15;94853.75;;;9.55;77.28
72409;BME280;60402;48.082;11.628;2023-06-14T03:22:00;94823.44;;;9.33;77.05
72409;BME280;60402;48.082;11.628;2023-06-14T03:24:47;94854.91;;;9.32;77.60
72409;BME280;60402;48.082;11.628;2023-06-14T03:27:33;94856.47;;;9.45;77.56
72409;BME280;60402;48.082;11.628;2023-06-14T03:30:19;94846.63;;;9.50;76.36
72409;BME280;60402;48.082;11.628;2023-06-14T03:33:04;94860.16;;;9.68;75.88
72409;BME280;60402;48.082;11.628;2023-06-14T03:35:50;94871.00;;;9.69;76.26
72409;BME280;60402;48.082;11.628;2023-06-14T03:38:36;94844.38;;;9.58;76.14
72409;BME280;60402;48.082;11.628;2023-06-14T03:41:21;94844.41;;;9.45;76.48
72409;BME280;60402;48.082;11.628;2023-06-14T03:44:07;94844.63;;;9.51;76.87
72409;BME280;60402;48.082;11.628;2023-06-14T03:46:52;94857.69;;;9.57;77.55
72409;BME280;60402;48.082;11.628;2023-06-14T03:49:38;94851.28;;;9.57;77.53
72409;BME280;60402;48.082;11.628;2023-06-14T03:52:24;94855.78;;;9.54;77.60
72409;BME280;60402;48.082;11.628;2023-06-14T03:55:10;94858.38;;;9.61;76.73
72409;BME280;60402;48.082;11.628;2023-06-14T03:57:59;94840.66;;;9.61;77.21
72409;BME280;60402;48.082;11.628;2023-06-14T04:00:44;94849.81;;;9.52;77.74
72409;BME280;60402;48.082;11.628;2023-06-14T04:03:31;94894.47;;;9.66;78.78
72409;BME280;60402;48.082;11.628;2023-06-14T04:06:17;94867.41;;;9.56;78.03
72409;BME280;60402;48.082;11.628;2023-06-14T04:09:05;94881.59;;;9.78;77.18
72409;BME280;60402;48.082;11.628;2023-06-14T04:11:52;94877.19;;;9.77;76.95
72409;BME280;60402;48.082;11.628;2023-06-14T04:14:38;94887.59;;;9.67;78.08
72409;BME280;60402;48.082;11.628;2023-06-14T04:17:25;94885.91;;;9.44;78.47
72409;BME280;60402;48.082;11.628;2023-06-14T04:20:10;94875.19;;;9.39;78.59
72409;BME280;60402;48.082;11.628;2023-06-14T04:22:56;94903.03;;;9.50;78.97
72409;BME280;60402;48.082;11.628;2023-06-14T04:25:42;94894.25;;;9.61;78.30
72409;BME280;60402;48.082;11.628;2023-06-14T04:28:30;94901.16;;;9.60;78.41
72409;BME280;60402;48.082;11.628;2023-06-14T04:31:16;94915.22;;;9.85;77.28
72409;BME280;60402;48.082;11.628;2023-06-14T04:34:02;94890.81;;;10.04;76.47
72409;BME280;60402;48.082;11.628;2023-06-14T04:36:51;94912.59;;;10.04;76.49
72409;BME280;60402;48.082;11.628;2023-06-14T04:39:38;94924.44;;;10.24;76.67
72409;BME280;60402;48.082;11.628;2023-06-14T04:42:24;94926.22;;;10.65;74.51
72409;BME280;60402;48.082;11.628;2023-06-14T04:45:16;94900.16;;;10.48;74.13
72409;BME280;60402;48.082;11.628;2023-06-14T04:48:02;94923.66;;;10.80;74.35
72409;BME280;60402;48.082;11.628;2023-06-14T04:50:48;94914.44;;;11.11;73.67
72409;BME280;60402;48.082;11.628;2023-06-14T04:53:38;94914.00;;;11.43;72.79
72409;BME280;60402;48.082;11.628;2023-06-14T04:56:24;94939.56;;;11.71;71.69
72409;BME280;60402;48.082;11.628;2023-06-14T04:59:14;94905.25;;;11.91;70.71
72409;BME280;60402;48.082;11.628;2023-06-14T05:02:00;94909.13;;;12.43;69.30
72409;BME280;60402;48.082;11.628;2023-06-14T05:04:46;94914.16;;;12.39;69.40
72409;BME280;60402;48.082;11.628;2023-06-14T05:07:33;94948.31;;;12.35;68.64
72409;BME280;60402;48.082;11.628;2023-06-14T05:10:19;94930.97;;;12.24;68.14
72409;BME280;60402;48.082;11.628;2023-06-14T05:13:04;94940.69;;;12.05;68.94
72409;BME280;60402;48.082;11.628;2023-06-14T05:15:50;94920.34;;;11.88;68.83
72409;BME280;60402;48.082;11.628;2023-06-14T05:18:36;94913.44;;;11.98;68.32
72409;BME280;60402;48.082;11.628;2023-06-14T05:21:22;94919.47;;;12.27;67.99
72409;BME280;60402;48.082;11.628;2023-06-14T05:24:08;94926.38;;;12.17;68.21
72409;BME280;60402;48.082;11.628;2023-06-14T05:26:54;94953.81;;;12.30;68.56
72409;BME280;60402;48.082;11.628;2023-06-14T05:29:40;94931.56;;;12.10;69.31
72409;BME280;60402;48.082;11.628;2023-06-14T05:32:25;94920.13;;;12.32;68.27
72409;BME280;60402;48.082;11.628;2023-06-14T05:35:11;94935.28;;;12.47;67.88
72409;BME280;60402;48.082;11.628;2023-06-14T05:37:57;94935.72;;;12.45;68.35
72409;BME280;60402;48.082;11.628;2023-06-14T05:40:42;94950.41;;;12.62;68.32
72409;BME280;60402;48.082;11.628;2023-06-14T05:43:28;94919.38;;;12.68;68.57
72409;BME280;60402;48.082;11.628;2023-06-14T05:46:14;94925.19;;;13.10;67.51
72409;BME280;60402;48.082;11.628;2023-06-14T05:49:00;94941.53;;;13.52;66.63
72409;BME280;60402;48.082;11.628;2023-06-14T05:51:46;94920.91;;;13.85;63.86
72409;BME280;60402;48.082;11.628;2023-06-14T05:54:31;94928.31;;;14.15;63.04
72409;BME280;60402;48.082;11.628;2023-06-14T05:57:17;94935.53;;;14.25;62.38
72409;BME280;60402;48.082;11.628;2023-06-14T06:00:03;94954.50;;;14.76;60.77
72409;BME280;60402;48.082;11.628;2023-06-14T06:02:56;94928.13;;;14.76;59.85
72409;BME280;60402;48.082;11.628;2023-06-14T06:05:44;94949.31;;;15.14;59.50
72409;BME280;60402;48.082;11.628;2023-06-14T06:08:30;94952.47;;;15.16;58.77
72409;BME280;60402;48.082;11.628;2023-06-14T06:11:16;94942.19;;;14.55;60.40
72409;BME280;60402;48.082;11.628;2023-06-14T06:14:02;94959.84;;;15.37;58.29
72409;BME280;60402;48.082;11.628;2023-06-14T06:16:48;94941.47;;;15.23;58.27
72409;BME280;60402;48.082;11.628;2023-06-14T06:19:33;94947.50;;;15.40;58.00
72409;BME280;60402;48.082;11.628;2023-06-14T06:22:19;94951.25;;;16.05;56.17
72409;BME280;60402;48.082;11.628;2023-06-14T06:25:05;94943.97;;;15.90;56.63
72409;BME280;60402;48.082;11.628;2023-06-14T06:27:52;94979.81;;;16.26;56.28
72409;BME280;60402;48.082;11.628;2023-06-14T06:30:38;94976.19;;;16.25;56.15
72409;BME280;60402;48.082;11.628;2023-06-14T06:33:24;94964.13;;;16.86;55.24
72409;BME280;60402;48.082;11.628;2023-06-14T06:36:10;94964.41;;;17.55;52.31
72409;BME280;60402;48.082;11.628;2023-06-14T06:38:56;94972.41;;;18.66;49.80
72409;BME280;60402;48.082;11.628;2023-06-14T06:41:41;94971.78;;;18.51;49.82
72409;BME280;60402;48.082;11.628;2023-06-14T06:44:27;94953.19;;;18.72;49.13
72409;BME280;60402;48.082;11.628;2023-06-14T06:47:12;94968.22;;;18.67;48.66
72409;BME280;60402;48.082;11.628;2023-06-14T06:49:58;94975.69;;;18.53;49.56
72409;BME280;60402;48.082;11.628;2023-06-14T06:52:44;94965.47;;;18.73;50.18
72409;BME280;60402;48.082;11.628;2023-06-14T06:55:30;94969.19;;;18.53;49.85
72409;BME280;60402;48.082;11.628;2023-06-14T06:58:16;94974.66;;;18.19;49.87
72409;BME280;60402;48.082;11.628;2023-06-14T07:01:02;94960.41;;;18.62;48.62
72409;BME280;60402;48.082;11.628;2023-06-14T07:03:47;94994.66;;;18.82;48.30
72409;BME280;60402;48.082;11.628;2023-06-14T07:06:33;94984.66;;;19.69;46.72
72409;BME280;60402;48.082;11.628;2023-06-14T07:09:18;94969.97;;;21.35;43.01
72409;BME280;60402;48.082;11.628;2023-06-14T07:12:06;94981.94;;;23.24;39.13
72409;BME280;60402;48.082;11.628;2023-06-14T07:14:52;94985.78;;;24.13;35.99
72409;BME280;60402;48.082;11.628;2023-06-14T07:17:37;94993.72;;;24.63;35.02
72409;BME280;60402;48.082;11.628;2023-06-14T07:20:23;94975.41;;;25.59;33.45
72409;BME280;60402;48.082;11.628;2023-06-14T07:23:10;94992.88;;;26.07;32.92
72409;BME280;60402;48.082;11.628;2023-06-14T07:25:56;95007.22;;;27.01;30.75
72409;BME280;60402;48.082;11.628;2023-06-14T07:28:41;95007.22;;;26.81;31.35
72409;BME280;60402;48.082;11.628;2023-06-14T07:31:30;94977.69;;;27.81;29.83
72409;BME280;60402;48.082;11.628;2023-06-14T07:34:16;95004.47;;;28.39;27.79
72409;BME280;60402;48.082;11.628;2023-06-14T07:37:01;95005.47;;;28.05;27.86
72409;BME280;60402;48.082;11.628;2023-06-14T07:39:47;95006.81;;;27.18;28.07
72409;BME280;60402;48.082;11.628;2023-06-14T07:42:36;95000.91;;;27.81;27.96
72409;BME280;60402;48.082;11.628;2023-06-14T07:45:21;95029.06;;;25.87;29.33
72409;BME280;60402;48.082;11.628;2023-06-14T07:48:07;95005.25;;;25.41;29.47
72409;BME280;60402;48.082;11.628;2023-06-14T07:50:53;95008.44;;;26.17;28.76
72409;BME280;60402;48.082;11.628;2023-06-14T07:53:38;95020.72;;;25.57;29.54
72409;BME280;60402;48.082;11.628;2023-06-14T07:56:24;95006.38;;;26.72;27.62
72409;BME280;60402;48.082;11.628;2023-06-14T07:59:09;95015.59;;;26.03;27.84
72409;BME280;60402;48.082;11.628;2023-06-14T08:01:55;95002.00;;;25.18;27.94
72409;BME280;60402;48.082;11.628;2023-06-14T08:04:41;95013.16;;;26.96;26.34
72409;BME280;60402;48.082;11.628;2023-06-14T08:07:27;95009.03;;;26.49;25.86
72409;BME280;60402;48.082;11.628;2023-06-14T08:10:13;95022.00;;;26.22;24.90
72409;BME280;60402;48.082;11.628;2023-06-14T08:12:58;95017.56;;;25.15;27.17
72409;BME280;60402;48.082;11.628;2023-06-14T08:15:45;95014.91;;;24.85;28.48
72409;BME280;60402;48.082;11.628;2023-06-14T08:18:31;95019.19;;;24.46;28.56
72409;BME280;60402;48.082;11.628;2023-06-14T08:21:16;95010.53;;;24.27;27.78
72409;BME280;60402;48.082;11.628;2023-06-14T08:24:02;95013.59;;;23.29;28.35
72409;BME280;60402;48.082;11.628;2023-06-14T08:26:49;95026.38;;;24.02;27.45
72409;BME280;60402;48.082;11.628;2023-06-14T08:29:35;95024.44;;;23.66;27.93
72409;BME280;60402;48.082;11.628;2023-06-14T08:32:21;95020.78;;;24.09;27.62
72409;BME280;60402;48.082;11.628;2023-06-14T08:35:07;95020.31;;;22.83;28.55
72409;BME280;60402;48.082;11.628;2023-06-14T08:37:53;95012.44;;;23.13;28.90
72409;BME280;60402;48.082;11.628;2023-06-14T08:40:40;95040.69;;;23.69;28.64
72409;BME280;60402;48.082;11.628;2023-06-14T08:43:27;95028.66;;;22.92;29.96
72409;BME280;60402;48.082;11.628;2023-06-14T08:46:14;95032.47;;;23.30;29.23
72409;BME280;60402;48.082;11.628;2023-06-14T08:49:05;95024.88;;;22.67;29.74
72409;BME280;60402;48.082;11.628;2023-06-14T08:51:54;95037.19;;;23.52;28.88
72409;BME280;60402;48.082;11.628;2023-06-14T08:54:42;95033.16;;;23.36;29.33
72409;BME280;60402;48.082;11.628;2023-06-14T08:57:29;95025.34;;;23.07;28.54
72409;BME280;60402;48.082;11.628;2023-06-14T09:00:16;95011.88;;;22.90;28.88
72409;BME280;60402;48.082;11.628;2023-06-14T09:03:02;95028.75;;;22.75;30.49
72409;BME280;60402;48.082;11.628;2023-06-14T09:05:48;95019.53;;;23.12;29.86
72409;BME280;60402;48.082;11.628;2023-06-14T09:08:35;95008.38;;;22.37;29.76
72409;BME280;60402;48.082;11.628;2023-06-14T09:11:21;95032.72;;;22.36;30.30
72409;BME280;60402;48.082;11.628;2023-06-14T09:14:07;95033.13;;;22.87;29.83
72409;BME280;60402;48.082;11.628;2023-06-14T09:16:53;95017.16;;;22.15;30.24
72409;BME280;60402;48.082;11.628;2023-06-14T09:19:39;95013.41;;;22.31;31.27
72409;BME280;60402;48.082;11.628;2023-06-14T09:22:25;95018.41;;;22.97;31.88
72409;BME280;60402;48.082;11.628;2023-06-14T09:25:10;95034.34;;;22.98;31.29
72409;BME280;60402;48.082;11.628;2023-06-14T09:27:58;95036.53;;;22.09;32.48
72409;BME280;60402;48.082;11.628;2023-06-14T09:30:44;95019.38;;;21.86;33.17
72409;BME280;60402;48.082;11.628;2023-06-14T09:33:30;95031.50;;;22.26;33.73
72409;BME280;60402;48.082;11.628;2023-06-14T09:36:24;95035.72;;;22.55;32.32
72409;BME280;60402;48.082;11.628;2023-06-14T09:39:10;95024.66;;;22.29;32.68
72409;BME280;60402;48.082;11.628;2023-06-14T09:42:16;95033.09;;;22.57;31.91
72409;BME280;60402;48.082;11.628;2023-06-14T09:45:03;95013.97;;;22.60;32.25
72409;BME280;60402;48.082;11.628;2023-06-14T09:47:50;95041.81;;;22.46;31.51
72409;BME280;60402;48.082;11.628;2023-06-14T09:50:36;95019.13;;;22.67;32.06
72409;BME280;60402;48.082;11.628;2023-06-14T09:53:23;95025.94;;;22.34;32.68
72409;BME280;60402;48.082;11.628;2023-06-14T09:56:10;95056.13;;;22.10;33.26
72409;BME280;60402;48.082;11.628;2023-06-14T09:58:58;95040.69;;;22.19;33.67
72409;BME280;60402;48.082;11.628;2023-06-14T10:01:44;95042.31;;;22.80;33.19
72409;BME280;60402;48.082;11.628;2023-06-14T10:04:31;95041.72;;;22.22;33.14
72409;BME280;60402;48.082;11.628;2023-06-14T10:07:19;95039.44;;;22.50;32.81
72409;BME280;60402;48.082;11.628;2023-06-14T10:10:06;95029.00;;;22.00;33.07
72409;BME280;60402;48.082;11.628;2023-06-14T10:12:52;95024.47;;;22.16;33.57
72409;BME280;60402;48.082;11.628;2023-06-14T10:16:05;95047.59;;;22.76;32.47
72409;BME280;60402;48.082;11.628;2023-06-14T10:19:01;95017.22;;;22.04;32.22
72409;BME280;60402;48.082;11.628;2023-06-14T10:22:09;95019.44;;;22.28;32.54
72409;BME280;60402;48.082;11.628;2023-06-14T10:24:56;95023.19;;;21.59;34.27
72409;BME280;60402;48.082;11.628;2023-06-14T10:27:44;95019.25;;;22.14;34.63
72409;BME280;60402;48.082;11.628;2023-06-14T10:30:31;95010.94;;;22.47;32.44
72409;BME280;60402;48.082;11.628;2023-06-14T10:33:16;95023.81;;;22.70;32.66
72409;BME280;60402;48.082;11.628;2023-06-14T10:39:15;95006.09;;;22.25;33.00
72409;BME280;60402;48.082;11.628;2023-06-14T10:42:02;95033.72;;;21.98;33.38
72409;BME280;60402;48.082;11.628;2023-06-14T10:44:50;95017.66;;;21.66;33.59
72409;BME280;60402;48.082;11.628;2023-06-14T10:47:40;95021.34;;;22.14;33.51
72409;BME280;60402;48.082;11.628;2023-06-14T10:50:29;95028.16;;;22.16;33.75
72409;BME280;60402;48.082;11.628;2023-06-14T10:53:24;95028.03;;;21.86;34.72
72409;BME280;60402;48.082;11.628;2023-06-14T10:56:32;95028.59;;;21.79;35.47
72409;BME280;60402;48.082;11.628;2023-06-14T10:59:19;95024.75;;;21.60;34.42
72409;BME280;60402;48.082;11.628;2023-06-14T11:02:58;95035.00;;;22.02;34.52
72409;BME280;60402;48.082;11.628;2023-06-14T11:05:54;95025.34;;;22.00;35.46
72409;BME280;60402;48.082;11.628;2023-06-14T11:08:56;95017.28;;;22.34;34.32
72409;BME280;60402;48.082;11.628;2023-06-14T11:11:51;95022.59;;;22.24;35.14
72409;BME280;60402;48.082;11.628;2023-06-14T11:14:39;95028.03;;;21.86;35.78
72409;BME280;60402;48.082;11.628;2023-06-14T11:17:25;95019.50;;;22.11;35.94
72409;BME280;60402;48.082;11.628;2023-06-14T11:20:12;95017.22;;;22.45;34.37
72409;BME280;60402;48.082;11.628;2023-06-14T11:23:02;95020.78;;;22.57;34.16
72409;BME280;60402;48.082;11.628;2023-06-14T11:25:51;95034.06;;;22.65;33.92
72409;BME280;60402;48.082;11.628;2023-06-14T11:28:39;95014.63;;;22.41;34.36
72409;BME280;60402;48.082;11.628;2023-06-14T11:31:26;95021.31;;;22.19;34.70
72409;BME280;60402;48.082;11.628;2023-06-14T11:34:12;95041.25;;;22.12;34.60
72409;BME280;60402;48.082;11.628;2023-06-14T11:36:59;95018.06;;;21.87;34.93
72409;BME280;60402;48.082;11.628;2023-06-14T11:39:46;95016.59;;;21.75;35.50
72409;BME280;60402;48.082;11.628;2023-06-14T11:42:31;95026.97;;;21.89;35.60
72409;BME280;60402;48.082;11.628;2023-06-14T11:45:18;95021.38;;;22.08;35.21
72409;BME280;60402;48.082;11.628;2023-06-14T11:48:03;95012.13;;;22.27;34.44
72409;BME280;60402;48.082;11.628;2023-06-14T11:50:50;94993.66;;;22.47;33.27
72409;BME280;60402;48.082;11.628;2023-06-14T11:53:37;95003.34;;;22.43;33.55
72409;BME280;60402;48.082;11.628;2023-06-14T11:56:23;95012.25;;;22.04;32.81
72409;BME280;60402;48.082;11.628;2023-06-14T11:59:08;95002.66;;;21.85;33.31
72409;BME280;60402;48.082;11.628;2023-06-14T12:01:54;94995.97;;;22.18;33.15
72409;BME280;60402;48.082;11.628;2023-06-14T12:04:44;94991.59;;;22.00;32.54
72409;BME280;60402;48.082;11.628;2023-06-14T12:07:30;95001.00;;;22.42;33.72
72409;BME280;60402;48.082;11.628;2023-06-14T12:10:17;95011.03;;;22.35;33.11
72409;BME280;60402;48.082;11.628;2023-06-14T12:13:03;95014.31;;;22.51;33.02
72409;BME280;60402;48.082;11.628;2023-06-14T12:15:54;95010.59;;;22.86;32.11
72409;BME280;60402;48.082;11.628;2023-06-14T12:18:41;95008.47;;;22.92;32.09
72409;BME280;60402;48.082;11.628;2023-06-14T12:21:28;95009.09;;;22.79;31.73
72409;BME280;60402;48.082;11.628;2023-06-14T12:24:14;94985.16;;;22.60;32.14
72409;BME280;60402;48.082;11.628;2023-06-14T12:27:00;95009.97;;;22.68;33.00
72409;BME280;60402;48.082;11.628;2023-06-14T12:29:58;94994.31;;;22.64;32.62
72409;BME280;60402;48.082;11.628;2023-06-14T12:32:44;95006.66;;;22.89;32.26
72409;BME280;60402;48.082;11.628;2023-06-14T12:35:31;94994.41;;;22.83;32.08
72409;BME280;60402;48.082;11.628;2023-06-14T12:38:18;94986.84;;;22.50;32.07
72409;BME280;60402;48.082;11.628;2023-06-14T12:41:04;94990.94;;;22.60;32.04
72409;BME280;60402;48.082;11.628;2023-06-14T12:43:49;94986.81;;;22.80;31.89
72409;BME280;60402;48.082;11.628;2023-06-14T12:46:36;95001.63;;;22.65;31.78
72409;BME280;60402;48.082;11.628;2023-06-14T12:49:22;95015.28;;;22.59;31.92
72409;BME280;60402;48.082;11.628;2023-06-14T12:52:08;95005.91;;;22.17;32.96
72409;BME280;60402;48.082;11.628;2023-06-14T12:54:54;95013.25;;;22.54;32.14
72409;BME280;60402;48.082;11.628;2023-06-14T12:57:39;95015.72;;;22.68;31.81
72409;BME280;60402;48.082;11.628;2023-06-14T13:00:25;95001.88;;;22.31;32.29
72409;BME280;60402;48.082;11.628;2023-06-14T13:03:15;94998.56;;;22.22;32.63
72409;BME280;60402;48.082;11.628;2023-06-14T13:06:01;95010.19;;;23.06;33.15
72409;BME280;60402;48.082;11.628;2023-06-14T13:08:48;95003.88;;;23.08;31.77
72409;BME280;60402;48.082;11.628;2023-06-14T13:11:34;95016.66;;;23.12;31.71
72409;BME280;60402;48.082;11.628;2023-06-14T13:14:20;94993.31;;;22.91;30.64
72409;BME280;60402;48.082;11.628;2023-06-14T13:17:05;94991.69;;;22.96;31.20
72409;BME280;60402;48.082;11.628;2023-06-14T13:19:51;94999.53;;;22.95;32.15
72409;BME280;60402;48.082;11.628;2023-06-14T13:22:37;95002.31;;;23.07;31.34
72409;BME280;60402;48.082;11.628;2023-06-14T13:25:22;95004.22;;;22.99;30.08
72409;BME280;60402;48.082;11.628;2023-06-14T13:28:08;95007.47;;;23.14;30.58
72409;BME280;60402;48.082;11.628;2023-06-14T13:30:54;94995.09;;;23.19;30.14
72409;BME280;60402;48.082;11.628;2023-06-14T13:33:41;94976.00;;;22.86;30.54
72409;BME280;60402;48.082;11.628;2023-06-14T13:36:27;94989.47;;;22.78;31.66
72409;BME280;60402;48.082;11.628;2023-06-14T13:39:12;95009.00;;;22.60;32.31
72409;BME280;60402;48.082;11.628;2023-06-14T13:41:58;94991.31;;;22.75;32.14
72409;BME280;60402;48.082;11.628;2023-06-14T13:44:44;94983.34;;;22.57;32.38
72409;BME280;60402;48.082;11.628;2023-06-14T13:47:30;94996.91;;;22.32;31.94
72409;BME280;60402;48.082;11.628;2023-06-14T13:50:16;94983.69;;;22.48;31.85
72409;BME280;60402;48.082;11.628;2023-06-14T13:53:02;95001.50;;;22.76;31.58
72409;BME280;60402;48.082;11.628;2023-06-14T13:55:48;94987.06;;;22.82;31.49
72409;BME280;60402;48.082;11.628;2023-06-14T13:58:33;94992.28;;;22.83;30.37
72409;BME280;60402;48.082;11.628;2023-06-14T14:01:19;94995.00;;;23.06;29.85
72409;BME280;60402;48.082;11.628;2023-06-14T14:04:05;94977.56;;;22.92;30.32
72409;BME280;60402;48.082;11.628;2023-06-14T14:06:51;94980.09;;;23.26;29.83
72409;BME280;60402;48.082;11.628;2023-06-14T14:09:36;94995.75;;;23.31;30.14
72409;BME280;60402;48.082;11.628;2023-06-14T14:12:23;94981.53;;;23.14;30.41
72409;BME280;60402;48.082;11.628;2023-06-14T14:15:10;94990.59;;;23.24;30.76
72409;BME280;60402;48.082;11.628;2023-06-14T14:17:58;94995.91;;;22.89;29.95
72409;BME280;60402;48.082;11.628;2023-06-14T14:20:43;94984.28;;;23.01;30.90
72409;BME280;60402;48.082;11.628;2023-06-14T14:23:29;94969.41;;;22.97;29.77
72409;BME280;60402;48.082;11.628;2023-06-14T14:26:15;94970.41;;;23.24;30.36
72409;BME280;60402;48.082;11.628;2023-06-14T14:29:01;94969.09;;;23.00;29.43
72409;BME280;60402;48.082;11.628;2023-06-14T14:31:47;94981.19;;;23.42;29.86
72409;BME280;60402;48.082;11.628;2023-06-14T14:34:33;94985.75;;;23.56;29.89
72409;BME280;60402;48.082;11.628;2023-06-14T14:37:19;94980.22;;;23.58;29.76
72409;BME280;60402;48.082;11.628;2023-06-14T14:40:05;94984.78;;;23.29;30.82